Thurles, Ireland
Current Conditions -  °F | °C
As of 7:00 PM on Monday 26 Jan 2015 (Local Time) from EIWF Reporting Station
Broken Clouds Broken Clouds  
Wind Chill: 37°   Ceiling: 3100
Heat Index: 43°   Visibility: 6mi
Dew Point: 39°   Wind: 9mph
Humidity: 87%   Direction: 310°NW
Pressure: 30.42"   Gusts: NA
Location:  52.68°N, 7.48°W
Report Text: EIWF 261800Z 31008KT 9999 BKN031 06/04 Q1030
Loading
Personal Weather Stations






























Interactive Weather Map New forecast layout! Learn more

10-Day Weather Forecast

Advertisements
Track Severe Weather on mobile